Time;durP1;ratioP1;P1;durP2;ratioP2;P2;SDS_P1;SDS_P2;PMS_P1;PMS_P2;Temp;Humidity;BMP_temperature;BMP_pressure;BME280_temperature;BME280_humidity;BME280_pressure;Samples;Min_cycle;Max_cycle;Signal;HPM_P1;HPM_P2
2021/11/11 00:02:11;;;;;;;25.13;15.20;;;8.10;93.00;;;;;;4940236;28;20140;-68
2021/11/11 00:04:37;;;;;;;29.75;15.68;;;8.10;92.90;;;;;;4965403;28;20026;-69
2021/11/11 00:07:04;;;;;;;29.13;14.13;;;8.10;92.80;;;;;;4964285;28;20034;-70
2021/11/11 00:09:31;;;;;;;25.38;14.75;;;8.10;92.70;;;;;;4948892;28;20034;-68
2021/11/11 00:11:56;;;;;;;28.52;15.15;;;8.10;92.80;;;;;;4967184;28;20519;-68
2021/11/11 00:14:23;;;;;;;30.77;16.77;;;8.10;92.80;;;;;;4966962;28;20026;-68
2021/11/11 00:16:49;;;;;;;29.50;16.27;;;8.10;92.90;;;;;;4968724;28;20027;-68
2021/11/11 00:19:15;;;;;;;32.25;16.15;;;8.10;93.10;;;;;;4987683;28;20101;-69
2021/11/11 00:21:41;;;;;;;29.25;17.67;;;8.10;93.20;;;;;;4952833;28;20621;-68
2021/11/11 00:24:07;;;;;;;30.30;16.77;;;8.10;93.50;;;;;;4976428;28;20491;-69
2021/11/11 00:26:33;;;;;;;32.97;17.48;;;8.10;93.70;;;;;;4968252;28;20037;-68
2021/11/11 00:28:58;;;;;;;41.40;18.67;;;8.00;93.90;;;;;;4979944;28;20059;-70
2021/11/11 00:31:25;;;;;;;33.00;17.52;;;8.00;94.10;;;;;;4974587;28;20517;-70
2021/11/11 00:33:51;;;;;;;36.25;17.45;;;8.00;94.20;;;;;;4990141;28;20030;-69
2021/11/11 00:36:17;;;;;;;34.67;18.23;;;8.00;94.40;;;;;;4965837;28;20525;-69
2021/11/11 00:38:42;;;;;;;43.13;18.85;;;8.00;94.50;;;;;;4979568;28;20046;-69
2021/11/11 00:41:10;;;;;;;39.40;18.08;;;7.90;94.70;;;;;;4972361;28;20022;-68
2021/11/11 00:43:37;;;;;;;36.72;18.38;;;8.00;94.80;;;;;;4978499;28;20133;-69
2021/11/11 00:46:03;;;;;;;38.50;18.58;;;8.00;94.90;;;;;;4956273;28;20077;-69
2021/11/11 00:48:29;;;;;;;38.80;19.42;;;8.00;95.00;;;;;;4969403;28;20035;-70
2021/11/11 00:50:55;;;;;;;39.00;18.63;;;7.90;95.10;;;;;;4974675;28;20610;-69
2021/11/11 00:53:20;;;;;;;34.53;18.80;;;7.90;95.20;;;;;;4973952;28;20247;-69
2021/11/11 00:55:46;;;;;;;37.90;18.50;;;7.90;95.30;;;;;;4970028;28;20049;-69
2021/11/11 00:58:12;;;;;;;41.08;19.63;;;7.90;95.40;;;;;;4974165;28;20324;-69
2021/11/11 01:00:38;;;;;;;40.95;20.33;;;7.80;95.50;;;;;;4956168;28;20133;-68
2021/11/11 01:03:08;;;;;;;38.45;19.90;;;7.80;95.70;;;;;;4969868;28;20085;-69
2021/11/11 01:05:34;;;;;;;36.15;19.88;;;7.80;95.90;;;;;;4950486;28;20511;-69
2021/11/11 01:08:00;;;;;;;35.13;20.00;;;7.70;96.20;;;;;;4973711;28;20054;-68
2021/11/11 01:10:27;;;;;;;32.80;20.13;;;7.70;96.40;;;;;;4975634;28;20077;-69
2021/11/11 01:12:54;;;;;;;36.92;20.67;;;7.70;96.70;;;;;;4981856;28;20096;-69
2021/11/11 01:15:28;;;;;;;42.58;22.58;;;7.70;96.90;;;;;;4978727;28;20097;-69
2021/11/11 01:17:54;;;;;;;46.03;23.50;;;7.70;97.10;;;;;;4965954;28;20034;-69
2021/11/11 01:20:21;;;;;;;37.38;22.73;;;7.70;97.30;;;;;;4974701;28;20038;-68
2021/11/11 01:22:48;;;;;;;49.28;24.70;;;7.70;97.40;;;;;;4962219;28;20047;-69
2021/11/11 01:25:18;;;;;;;52.03;25.10;;;7.60;97.50;;;;;;4961634;28;20042;-68
2021/11/11 01:27:44;;;;;;;46.30;23.83;;;7.60;97.60;;;;;;4945808;28;20046;-68
2021/11/11 01:30:10;;;;;;;58.95;25.98;;;7.60;97.70;;;;;;4979529;28;20113;-68
2021/11/11 01:32:36;;;;;;;53.20;27.20;;;7.60;97.90;;;;;;4970103;28;20037;-68
2021/11/11 01:35:03;;;;;;;49.35;26.20;;;7.70;97.90;;;;;;4979514;28;20022;-70
2021/11/11 01:37:29;;;;;;;62.08;27.40;;;7.60;98.00;;;;;;4964598;28;20094;-69
2021/11/11 01:39:54;;;;;;;53.95;27.70;;;7.60;98.10;;;;;;4974981;28;20041;-68
2021/11/11 01:42:20;;;;;;;51.17;27.75;;;7.60;98.10;;;;;;4974487;28;20093;-67
2021/11/11 01:44:54;;;;;;;56.95;27.90;;;7.60;98.20;;;;;;4973706;28;20065;-68
2021/11/11 01:47:20;;;;;;;66.97;29.88;;;7.60;98.30;;;;;;4966319;28;20046;-69
2021/11/11 01:49:46;;;;;;;56.10;29.27;;;7.60;98.30;;;;;;4980413;28;20026;-67
2021/11/11 01:52:13;;;;;;;61.85;29.15;;;7.60;98.40;;;;;;4971532;28;20418;-67
2021/11/11 01:54:39;;;;;;;64.40;29.75;;;7.60;98.40;;;;;;4970197;28;20286;-67
2021/11/11 01:57:05;;;;;;;65.22;29.48;;;7.60;98.50;;;;;;4973245;28;20245;-68
2021/11/11 01:59:31;;;;;;;58.33;29.75;;;7.60;98.50;;;;;;4977707;28;20026;-68
2021/11/11 02:01:56;;;;;;;64.45;30.58;;;7.60;98.50;;;;;;4959504;28;20129;-67
2021/11/11 02:04:22;;;;;;;59.03;29.08;;;7.60;98.50;;;;;;4949588;28;20065;-68
2021/11/11 02:06:48;;;;;;;61.65;29.95;;;7.60;98.60;;;;;;4972160;28;20031;-67
2021/11/11 02:09:15;;;;;;;65.75;30.55;;;7.60;98.60;;;;;;4972023;28;20070;-67
2021/11/11 02:11:40;;;;;;;64.93;30.75;;;7.60;98.70;;;;;;4974952;28;20241;-68
2021/11/11 02:14:06;;;;;;;60.35;30.77;;;7.60;98.70;;;;;;4992005;28;20416;-67
2021/11/11 02:16:37;;;;;;;62.08;30.50;;;7.60;98.70;;;;;;4968452;28;20054;-67
2021/11/11 02:19:05;;;;;;;65.50;32.05;;;7.60;98.70;;;;;;4974568;28;20081;-67
2021/11/11 02:21:31;;;;;;;67.30;32.03;;;7.60;98.80;;;;;;4968122;28;20502;-67
2021/11/11 02:23:56;;;;;;;63.58;30.92;;;7.60;98.80;;;;;;4961844;28;20060;-67
2021/11/11 02:26:22;;;;;;;63.10;31.50;;;7.60;98.80;;;;;;4970590;28;20046;-67
2021/11/11 02:28:47;;;;;;;65.15;31.35;;;7.60;98.90;;;;;;4974157;28;20423;-68
2021/11/11 02:31:13;;;;;;;62.70;28.90;;;7.60;98.90;;;;;;4964314;28;20113;-67
2021/11/11 02:33:38;;;;;;;69.93;31.13;;;7.60;98.80;;;;;;4971333;28;20068;-67
2021/11/11 02:36:04;;;;;;;64.15;31.40;;;7.60;98.90;;;;;;4977824;28;20145;-67
2021/11/11 02:38:30;;;;;;;59.63;31.08;;;7.60;98.90;;;;;;4963037;28;20030;-67
2021/11/11 02:40:56;;;;;;;52.47;29.08;;;7.60;98.90;;;;;;4968394;28;20068;-67
2021/11/11 02:43:25;;;;;;;64.15;30.05;;;7.60;98.90;;;;;;4966465;28;20038;-67
2021/11/11 02:45:51;;;;;;;61.33;30.33;;;7.60;98.90;;;;;;4981296;28;20047;-67
2021/11/11 02:48:20;;;;;;;68.00;31.17;;;7.60;99.00;;;;;;4968734;28;20097;-67
2021/11/11 02:50:48;;;;;;;53.63;30.30;;;7.60;99.00;;;;;;4955531;28;20537;-67
2021/11/11 02:53:13;;;;;;;61.47;31.05;;;7.60;99.00;;;;;;4953366;28;20656;-68
2021/11/11 02:55:40;;;;;;;63.65;30.92;;;7.60;99.00;;;;;;4962574;28;20030;-67
2021/11/11 02:58:06;;;;;;;60.92;31.00;;;7.60;99.00;;;;;;4963738;28;20048;-67
2021/11/11 03:00:54;;;;;;;56.47;29.40;;;7.60;99.00;;;;;;4953115;28;20046;-67
2021/11/11 03:03:20;;;;;;;61.08;30.30;;;7.60;99.00;;;;;;4965235;28;20022;-67
2021/11/11 03:05:45;;;;;;;56.85;29.27;;;7.50;99.00;;;;;;4978513;28;20041;-67
2021/11/11 03:08:12;;;;;;;68.35;32.15;;;7.60;99.10;;;;;;4965341;28;20230;-67
2021/11/11 03:10:40;;;;;;;61.40;32.40;;;7.50;99.10;;;;;;4966642;28;20386;-68
2021/11/11 03:13:07;;;;;;;73.28;31.98;;;7.60;99.10;;;;;;4976399;28;20043;-67
2021/11/11 03:15:33;;;;;;;64.78;32.22;;;7.50;99.20;;;;;;4966330;28;20031;-67
2021/11/11 03:17:59;;;;;;;68.20;32.67;;;7.50;99.20;;;;;;4952447;28;20105;-68
2021/11/11 03:20:25;;;;;;;66.53;32.10;;;7.50;99.20;;;;;;4951500;28;20169;-68
2021/11/11 03:22:51;;;;;;;64.35;32.03;;;7.50;99.20;;;;;;4997705;23;20057;-78
2021/11/11 03:25:20;;;;;;;68.57;32.25;;;7.50;99.30;;;;;;4973355;28;20038;-78
2021/11/11 03:27:46;;;;;;;69.03;32.75;;;7.60;99.30;;;;;;4984564;28;20057;-77
2021/11/11 03:30:14;;;;;;;76.30;35.40;;;7.50;99.30;;;;;;4988437;28;20027;-78
2021/11/11 03:32:41;;;;;;;67.43;32.83;;;7.60;99.30;;;;;;4967595;28;20026;-78
2021/11/11 03:35:08;;;;;;;75.40;34.40;;;7.60;99.30;;;;;;4978331;28;20523;-78
2021/11/11 03:37:33;;;;;;;72.05;34.83;;;7.60;99.30;;;;;;4984884;28;20029;-78
2021/11/11 03:39:59;;;;;;;72.90;34.40;;;7.60;99.30;;;;;;4974664;28;20035;-78
2021/11/11 03:42:25;;;;;;;74.05;35.63;;;7.60;99.30;;;;;;4957681;28;20105;-78
2021/11/11 03:44:50;;;;;;;73.90;35.17;;;7.50;99.30;;;;;;4967527;28;20031;-78
2021/11/11 03:47:16;;;;;;;72.53;34.40;;;7.60;99.40;;;;;;4975770;28;20027;-78
2021/11/11 03:49:42;;;;;;;73.10;35.38;;;7.60;99.40;;;;;;4985302;28;20113;-78
2021/11/11 03:52:09;;;;;;;69.95;33.47;;;7.60;99.40;;;;;;4973180;28;20428;-78
2021/11/11 03:54:36;;;;;;;84.85;37.40;;;7.60;99.40;;;;;;4982815;28;20098;-78
2021/11/11 03:57:02;;;;;;;73.68;35.17;;;7.60;99.40;;;;;;4974606;28;20030;-76
2021/11/11 03:59:30;;;;;;;74.95;35.65;;;7.60;99.40;;;;;;4962389;28;20026;-78
2021/11/11 04:01:57;;;;;;;89.18;37.42;;;7.60;99.40;;;;;;4961114;28;20403;-78
2021/11/11 04:04:23;;;;;;;82.13;36.42;;;7.60;99.40;;;;;;4955756;28;20122;-78
2021/11/11 04:06:48;;;;;;;77.32;36.92;;;7.60;99.40;;;;;;4977650;28;20121;-77
2021/11/11 04:09:14;;;;;;;81.75;35.97;;;7.60;99.40;;;;;;4954597;28;20023;-78
2021/11/11 04:11:40;;;;;;;80.32;36.17;;;7.60;99.40;;;;;;4973819;28;20026;-78
2021/11/11 04:14:06;;;;;;;86.75;35.67;;;7.60;99.50;;;;;;4976419;28;20035;-78
2021/11/11 04:16:33;;;;;;;79.38;36.90;;;7.60;99.50;;;;;;4980529;28;20054;-78
2021/11/11 04:18:59;;;;;;;81.97;35.78;;;7.60;99.40;;;;;;4982636;28;20121;-78
2021/11/11 04:21:25;;;;;;;81.30;37.17;;;7.60;99.50;;;;;;4979037;28;20054;-78
2021/11/11 04:23:52;;;;;;;77.30;36.40;;;7.60;99.40;;;;;;4960697;28;20106;-79
2021/11/11 04:26:26;;;;;;;82.45;36.83;;;7.60;99.50;;;;;;4979109;28;20537;-78
2021/11/11 04:28:57;;;;;;;80.07;37.38;;;7.60;99.50;;;;;;4985938;28;20035;-78
2021/11/11 04:31:31;;;;;;;85.78;36.70;;;7.60;99.50;;;;;;4981163;28;20035;-77
2021/11/11 04:34:02;;;;;;;84.47;37.40;;;7.60;99.50;;;;;;5000645;28;20022;-79
2021/11/11 04:42:10;;;;;;;88.93;38.25;;;7.60;99.50;;;;;;4974589;28;20114;-77
2021/11/11 04:44:53;;;;;;;91.20;39.40;;;7.60;99.50;;;;;;4983537;28;20058;-77
2021/11/11 04:50:37;;;;;;;98.72;41.92;;;7.60;99.50;;;;;;4973420;28;20037;-75
2021/11/11 04:59:31;;;;;;;112.60;40.08;;;7.60;99.60;;;;;;4974916;28;20026;-77
2021/11/11 05:01:31;;;;;;;104.20;42.03;;;7.60;99.60;;;;;;4991369;28;20073;-75
2021/11/11 05:03:57;;;;;;;99.40;41.10;;;7.60;99.60;;;;;;4994880;28;20069;-77
2021/11/11 05:06:22;;;;;;;104.72;41.42;;;7.70;99.60;;;;;;4991125;28;20091;-76
2021/11/11 05:08:48;;;;;;;100.55;41.92;;;7.70;99.60;;;;;;5005191;28;20277;-77
2021/11/11 05:11:14;;;;;;;108.57;42.60;;;7.70;99.60;;;;;;4991030;28;20117;-79
2021/11/11 05:13:40;;;;;;;101.90;41.58;;;7.70;99.60;;;;;;4991698;28;20316;-77
2021/11/11 05:16:06;;;;;;;124.68;43.35;;;7.70;99.70;;;;;;4978774;28;20321;-77
2021/11/11 05:18:31;;;;;;;115.78;42.13;;;7.70;99.70;;;;;;4975824;28;20030;-77
2021/11/11 05:20:57;;;;;;;118.07;42.67;;;7.70;99.70;;;;;;4998442;28;20045;-78
2021/11/11 05:23:22;;;;;;;107.50;42.28;;;7.70;99.70;;;;;;4993679;28;20046;-77
2021/11/11 05:25:49;;;;;;;106.97;41.83;;;7.80;99.70;;;;;;4982025;28;20109;-78
2021/11/11 05:28:14;;;;;;;119.30;42.42;;;7.70;99.70;;;;;;4999589;28;20041;-77
2021/11/11 05:30:40;;;;;;;122.35;43.85;;;7.70;99.70;;;;;;4999886;28;20406;-78
2021/11/11 05:33:06;;;;;;;123.70;43.95;;;7.80;99.70;;;;;;4993998;28;20538;-77
2021/11/11 05:35:32;;;;;;;126.93;42.72;;;7.70;99.80;;;;;;4992235;28;20427;-75
2021/11/11 05:37:57;;;;;;;126.97;43.65;;;7.80;99.80;;;;;;4993708;28;20027;-77
2021/11/11 05:40:23;;;;;;;129.40;44.72;;;7.80;99.80;;;;;;4980919;28;20030;-78
2021/11/11 05:42:49;;;;;;;131.25;44.78;;;7.80;99.80;;;;;;4997775;28;20030;-78
2021/11/11 05:45:16;;;;;;;138.40;43.97;;;7.80;99.80;;;;;;4982893;28;20033;-79
2021/11/11 05:47:42;;;;;;;126.97;43.58;;;7.80;99.80;;;;;;5002539;28;20037;-78
2021/11/11 05:50:10;;;;;;;123.20;45.53;;;7.80;99.80;;;;;;4996825;28;20088;-79
2021/11/11 05:52:36;;;;;;;116.20;44.75;;;7.80;99.80;;;;;;4996032;28;20069;-77
2021/11/11 05:55:02;;;;;;;119.78;43.22;;;7.80;99.80;;;;;;4987627;28;20115;-79
2021/11/11 05:57:28;;;;;;;112.38;44.25;;;7.80;99.80;;;;;;4997079;28;20088;-79
2021/11/11 05:59:53;;;;;;;116.40;44.08;;;7.80;99.90;;;;;;4992561;28;20451;-78
2021/11/11 06:02:19;;;;;;;127.15;43.70;;;7.80;99.90;;;;;;4997027;28;20037;-81
2021/11/11 06:04:45;;;;;;;116.97;44.35;;;7.80;99.90;;;;;;4999690;28;20034;-79
2021/11/11 06:07:11;;;;;;;125.45;45.42;;;7.80;99.90;;;;;;4996348;28;20034;-79
2021/11/11 06:09:37;;;;;;;125.88;44.80;;;7.90;99.90;;;;;;4981688;28;20040;-79
2021/11/11 06:12:03;;;;;;;136.18;46.45;;;7.80;99.90;;;;;;4980212;28;20037;-79
2021/11/11 06:14:29;;;;;;;128.52;46.42;;;7.80;99.90;;;;;;4993546;28;20041;-77
2021/11/11 06:16:54;;;;;;;120.72;44.80;;;7.80;99.90;;;;;;4983382;28;20034;-76
2021/11/11 06:19:20;;;;;;;129.05;45.03;;;7.80;99.90;;;;;;4990406;28;20097;-79
2021/11/11 06:21:46;;;;;;;121.35;45.97;;;7.90;99.90;;;;;;4992060;28;20278;-79
2021/11/11 06:24:14;;;;;;;112.00;47.25;;;7.90;99.90;;;;;;4991955;28;20105;-79
2021/11/11 06:26:41;;;;;;;127.10;45.90;;;7.80;99.90;;;;;;5000183;28;20502;-79
2021/11/11 06:29:07;;;;;;;134.20;46.88;;;7.90;99.90;;;;;;4999688;28;20057;-79
2021/11/11 06:31:33;;;;;;;114.20;45.58;;;7.80;99.90;;;;;;5002233;28;20092;-79
2021/11/11 06:33:59;;;;;;;111.82;46.33;;;7.80;99.90;;;;;;4993073;28;20064;-79
2021/11/11 06:36:24;;;;;;;116.78;47.35;;;7.90;99.90;;;;;;4994091;28;20042;-80
2021/11/11 06:38:50;;;;;;;122.10;47.17;;;7.80;99.90;;;;;;4992732;28;20030;-80
2021/11/11 06:41:16;;;;;;;123.65;48.80;;;7.80;99.90;;;;;;4994640;28;20025;-79
2021/11/11 06:43:43;;;;;;;110.95;45.45;;;7.80;99.90;;;;;;4979658;28;20129;-77
2021/11/11 06:46:09;;;;;;;112.43;45.45;;;7.80;99.90;;;;;;5006799;28;20022;-77
2021/11/11 06:48:35;;;;;;;108.82;44.90;;;7.80;99.90;;;;;;5008155;28;20058;-77
2021/11/11 06:51:01;;;;;;;113.60;46.83;;;7.80;99.90;;;;;;5010781;28;20738;-77
2021/11/11 06:53:27;;;;;;;115.43;45.25;;;7.80;99.90;;;;;;5001492;28;20069;-78
2021/11/11 06:55:53;;;;;;;95.25;42.67;;;7.80;99.90;;;;;;5008927;28;20038;-77
2021/11/11 06:58:22;;;;;;;97.75;44.22;;;7.80;99.90;;;;;;5007809;28;20030;-77
2021/11/11 07:00:50;;;;;;;103.45;44.45;;;7.80;99.90;;;;;;5010922;28;20030;-78
2021/11/11 07:03:15;;;;;;;92.07;43.30;;;7.80;99.90;;;;;;4994028;28;20026;-79
2021/11/11 07:05:41;;;;;;;83.57;41.80;;;7.80;99.90;;;;;;5011389;28;20040;-79
2021/11/11 07:08:09;;;;;;;95.00;42.65;;;7.80;99.90;;;;;;5004308;28;20072;-80
2021/11/11 07:10:35;;;;;;;94.32;42.65;;;7.80;99.90;;;;;;5013121;28;20115;-79
2021/11/11 07:13:01;;;;;;;85.25;40.50;;;7.80;99.90;;;;;;5005879;28;20026;-78
2021/11/11 07:15:27;;;;;;;82.20;38.38;;;7.70;99.80;;;;;;4998660;28;20037;-79
2021/11/11 07:17:52;;;;;;;82.97;39.45;;;7.70;99.80;;;;;;4999416;28;20399;-80
2021/11/11 07:20:18;;;;;;;90.70;40.47;;;7.70;99.80;;;;;;4978842;28;20022;-79
2021/11/11 07:22:45;;;;;;;76.82;37.75;;;7.70;99.80;;;;;;4996427;28;20034;-79
2021/11/11 07:25:12;;;;;;;81.93;38.78;;;7.70;99.70;;;;;;4979205;28;20051;-79
2021/11/11 07:27:38;;;;;;;84.30;38.92;;;7.80;99.80;;;;;;4992130;28;20062;-79
2021/11/11 07:30:07;;;;;;;77.47;37.97;;;7.80;99.80;;;;;;4999157;28;20033;-78
2021/11/11 07:32:33;;;;;;;78.28;38.90;;;7.80;99.70;;;;;;4993366;28;20029;-79
2021/11/11 07:34:58;;;;;;;80.13;37.00;;;7.80;99.70;;;;;;4995911;28;20022;-79
2021/11/11 07:37:24;;;;;;;72.55;37.25;;;7.80;99.70;;;;;;4995221;28;20395;-79
2021/11/11 07:39:52;;;;;;;73.65;36.40;;;7.80;99.70;;;;;;4996051;28;20033;-79
2021/11/11 07:42:20;;;;;;;82.07;37.67;;;7.80;99.70;;;;;;4995407;28;20019;-79
2021/11/11 07:44:46;;;;;;;75.28;35.65;;;7.80;99.60;;;;;;4982510;28;20108;-79
2021/11/11 07:47:11;;;;;;;76.13;36.75;;;7.90;99.60;;;;;;4990992;28;20035;-79
2021/11/11 07:49:37;;;;;;;69.95;35.60;;;7.90;99.60;;;;;;5001785;28;20393;-77
2021/11/11 07:52:03;;;;;;;69.10;35.47;;;7.90;99.50;;;;;;4995676;28;20050;-79
2021/11/11 07:54:28;;;;;;;76.38;35.00;;;7.90;99.50;;;;;;4996635;28;20038;-80
2021/11/11 07:56:55;;;;;;;66.65;35.15;;;8.00;99.50;;;;;;5009188;28;20018;-81
2021/11/11 07:59:21;;;;;;;76.82;36.58;;;8.00;99.50;;;;;;4998284;28;20077;-77
2021/11/11 08:01:46;;;;;;;74.15;34.97;;;8.00;99.50;;;;;;4996731;28;20026;-79
2021/11/11 08:04:12;;;;;;;69.22;34.75;;;8.10;99.50;;;;;;4989847;28;20094;-79
2021/11/11 08:06:37;;;;;;;68.25;33.33;;;8.10;99.50;;;;;;4985698;28;20031;-78
2021/11/11 08:09:03;;;;;;;62.28;34.10;;;8.10;99.40;;;;;;4987260;28;20030;-77
2021/11/11 08:11:29;;;;;;;67.72;34.33;;;8.10;99.40;;;;;;4975623;28;20030;-78
2021/11/11 08:13:55;;;;;;;64.47;32.70;;;8.10;99.40;;;;;;4997917;28;20034;-79
2021/11/11 08:16:21;;;;;;;61.92;33.10;;;8.10;99.40;;;;;;4998475;28;20405;-77
2021/11/11 08:18:46;;;;;;;65.68;32.05;;;8.20;99.40;;;;;;4995147;28;20030;-80
2021/11/11 08:21:12;;;;;;;71.57;33.55;;;8.20;99.40;;;;;;5003694;28;20046;-80
2021/11/11 08:23:38;;;;;;;64.22;32.35;;;8.20;99.30;;;;;;4993902;28;20458;-78
2021/11/11 08:26:05;;;;;;;63.92;30.80;;;8.20;99.40;;;;;;5001878;28;20045;-79
2021/11/11 08:28:31;;;;;;;59.63;30.00;;;8.30;99.30;;;;;;4997103;28;20089;-80
2021/11/11 08:30:57;;;;;;;61.20;31.60;;;8.30;99.20;;;;;;4978839;28;20466;-79
2021/11/11 08:33:22;;;;;;;48.78;28.33;;;8.30;99.20;;;;;;5006434;28;20293;-79
2021/11/11 08:35:49;;;;;;;60.65;29.80;;;8.30;99.20;;;;;;4999461;28;20080;-79
2021/11/11 08:38:15;;;;;;;61.95;29.85;;;8.40;99.20;;;;;;4999810;28;20180;-80
2021/11/11 08:40:41;;;;;;;51.75;28.77;;;8.40;99.20;;;;;;5003745;28;20130;-79
2021/11/11 08:43:07;;;;;;;53.38;28.30;;;8.40;99.20;;;;;;5001221;28;20049;-80
2021/11/11 08:45:32;;;;;;;49.13;26.10;;;8.50;99.10;;;;;;5002547;28;20037;-79
2021/11/11 08:48:00;;;;;;;49.40;27.95;;;8.50;99.00;;;;;;5004628;28;20026;-79
2021/11/11 08:50:30;;;;;;;54.13;27.15;;;8.50;99.00;;;;;;4996285;28;20088;-78
2021/11/11 08:52:55;;;;;;;46.92;25.42;;;8.50;99.00;;;;;;5006923;28;20065;-78
2021/11/11 08:55:25;;;;;;;49.42;24.85;;;8.60;98.90;;;;;;4994412;28;20026;-79
2021/11/11 08:57:51;;;;;;;42.08;23.90;;;8.60;98.90;;;;;;4992879;28;20034;-79
2021/11/11 09:00:20;;;;;;;41.40;23.83;;;8.60;98.80;;;;;;4998847;28;20176;-78
2021/11/11 09:02:47;;;;;;;46.83;24.00;;;8.70;98.70;;;;;;4985999;28;20053;-81
2021/11/11 09:05:13;;;;;;;45.78;23.48;;;8.70;98.70;;;;;;4983039;28;20057;-78
2021/11/11 09:07:39;;;;;;;40.78;23.42;;;8.70;98.60;;;;;;5003760;28;20839;-78
2021/11/11 09:10:07;;;;;;;43.55;22.67;;;8.70;98.60;;;;;;5000190;28;20113;-78
2021/11/11 09:12:33;;;;;;;45.08;22.60;;;8.80;98.60;;;;;;4999480;28;20042;-78
2021/11/11 09:14:59;;;;;;;43.58;23.77;;;8.80;98.60;;;;;;4996344;28;20031;-78
2021/11/11 09:17:24;;;;;;;44.58;22.48;;;8.80;98.60;;;;;;4992519;28;20053;-78
2021/11/11 09:19:50;;;;;;;43.33;21.75;;;8.90;98.60;;;;;;4976233;28;20648;-77
2021/11/11 09:22:15;;;;;;;41.85;21.75;;;8.90;98.40;;;;;;5012771;23;20053;-75
2021/11/11 09:24:41;;;;;;;40.05;22.70;;;8.90;98.50;;;;;;4987974;28;20027;-75
2021/11/11 09:27:06;;;;;;;41.55;21.50;;;9.00;98.50;;;;;;4987274;28;20026;-75
2021/11/11 09:29:32;;;;;;;37.38;20.60;;;9.10;98.40;;;;;;4965710;28;20080;-75
2021/11/11 09:31:57;;;;;;;39.53;20.25;;;9.10;98.30;;;;;;4984084;28;20105;-76
2021/11/11 09:34:23;;;;;;;36.50;18.85;;;9.10;98.20;;;;;;4974096;28;20437;-76
2021/11/11 09:36:48;;;;;;;33.42;19.85;;;9.10;98.20;;;;;;4959178;28;20026;-76
2021/11/11 09:39:14;;;;;;;30.17;18.15;;;9.20;98.10;;;;;;4962896;28;20039;-76
2021/11/11 09:41:40;;;;;;;29.42;18.35;;;9.20;98.00;;;;;;4958265;28;20111;-75
2021/11/11 09:44:06;;;;;;;31.00;17.67;;;9.20;97.70;;;;;;4950142;28;20027;-76
2021/11/11 09:49:07;;;;;;;35.63;18.67;;;9.30;97.70;;;;;;4974767;23;20327;-77
2021/11/11 09:51:33;;;;;;;31.83;18.05;;;9.30;97.60;;;;;;4960041;28;20127;-75
2021/11/11 09:54:06;;;;;;;30.85;17.88;;;9.30;97.40;;;;;;4948213;28;20031;-76
2021/11/11 09:59:17;;;;;;;27.92;15.98;;;9.30;97.50;;;;;;4937548;28;20435;-77
2021/11/11 10:01:43;;;;;;;31.08;17.98;;;9.30;97.50;;;;;;4969932;23;20110;-77
2021/11/11 10:04:09;;;;;;;38.70;17.38;;;9.30;97.60;;;;;;4976680;28;20496;-80
2021/11/11 10:06:35;;;;;;;31.40;17.02;;;9.20;97.50;;;;;;4987930;28;20108;-77
2021/11/11 10:09:17;;;;;;;30.95;17.27;;;9.20;97.60;;;;;;4974370;28;20209;-79
2021/11/11 10:11:51;;;;;;;26.75;16.10;;;9.10;97.50;;;;;;4972810;28;20034;-80
2021/11/11 10:14:26;;;;;;;23.23;16.15;;;9.10;97.50;;;;;;4988300;28;20035;-80
2021/11/11 10:16:56;;;;;;;26.63;17.05;;;9.10;97.50;;;;;;4987156;28;20080;-79
2021/11/11 10:19:23;;;;;;;30.90;17.27;;;9.20;97.60;;;;;;4978871;28;20089;-79
2021/11/11 10:22:05;;;;;;;29.15;16.95;;;9.20;97.50;;;;;;4984429;28;20269;-80
2021/11/11 10:24:46;;;;;;;25.98;16.27;;;9.20;97.50;;;;;;4986567;28;20395;-80
2021/11/11 10:27:27;;;;;;;24.98;14.77;;;9.30;97.40;;;;;;4984475;28;20034;-78
2021/11/11 10:30:00;;;;;;;23.25;15.50;;;9.30;97.10;;;;;;4985621;28;20049;-78
2021/11/11 10:32:37;;;;;;;29.30;15.20;;;9.30;97.10;;;;;;4977897;28;20038;-78
2021/11/11 10:35:12;;;;;;;24.50;15.57;;;9.20;97.10;;;;;;4959062;28;20495;-78
2021/11/11 10:37:41;;;;;;;27.10;15.60;;;9.30;97.00;;;;;;4967901;28;20388;-78
2021/11/11 10:40:11;;;;;;;28.17;15.00;;;9.30;97.10;;;;;;4985646;28;20042;-79
2021/11/11 10:42:39;;;;;;;25.40;14.30;;;9.30;97.00;;;;;;4967730;28;20135;-78
2021/11/11 10:45:09;;;;;;;22.00;14.70;;;9.30;96.90;;;;;;4986837;28;20030;-78
2021/11/11 10:47:36;;;;;;;32.90;16.23;;;9.20;97.00;;;;;;4988490;28;20092;-78
2021/11/11 10:50:11;;;;;;;23.50;15.52;;;9.20;97.00;;;;;;4967544;28;20057;-79
2021/11/11 10:52:42;;;;;;;25.98;15.13;;;9.20;96.90;;;;;;4964201;28;20038;-76
2021/11/11 10:55:22;;;;;;;29.37;14.70;;;9.20;96.80;;;;;;4967808;28;20455;-76
2021/11/11 10:58:01;;;;;;;28.42;15.43;;;9.20;96.70;;;;;;4978843;28;20022;-78
2021/11/11 11:00:33;;;;;;;26.27;15.45;;;9.30;96.70;;;;;;4969969;28;20046;-78
2021/11/11 11:03:15;;;;;;;24.98;14.52;;;9.30;96.70;;;;;;4979970;28;20058;-78
2021/11/11 11:05:55;;;;;;;25.10;14.75;;;9.30;96.50;;;;;;4962749;28;20026;-78
2021/11/11 11:08:24;;;;;;;22.00;14.43;;;9.40;96.40;;;;;;4987441;28;20025;-79
2021/11/11 11:10:55;;;;;;;25.02;13.77;;;9.40;96.30;;;;;;4974095;28;20592;-78
2021/11/11 11:13:23;;;;;;;;;;;9.50;96.20;;;;;;4983030;28;20031;-79
2021/11/11 11:15:53;;;;;;;22.92;13.25;;;9.40;96.00;;;;;;4975549;28;20001;-78
2021/11/11 11:18:22;;;;;;;23.10;13.43;;;9.40;95.70;;;;;;4990223;28;20033;-79
2021/11/11 11:20:47;;;;;;;23.70;13.55;;;9.40;95.80;;;;;;4981053;28;20026;-80
2021/11/11 11:23:17;;;;;;;24.75;13.77;;;9.40;95.90;;;;;;4983896;28;20030;-79
2021/11/11 11:26:06;;;;;;;24.70;13.50;;;9.30;95.90;;;;;;4967525;28;20035;-80
2021/11/11 11:28:47;;;;;;;25.30;13.38;;;9.20;95.90;;;;;;4985220;28;20135;-80
2021/11/11 11:32:07;;;;;;;25.92;14.10;;;9.30;95.90;;;;;;4982060;28;20401;-79
2021/11/11 11:34:42;;;;;;;31.90;13.90;;;9.30;95.40;;;;;;4904773;29;20044;-78
2021/11/11 11:37:16;;;;;;;22.77;13.15;;;9.30;95.10;;;;;;4900833;29;20181;-78
2021/11/11 11:40:09;;;;;;;29.92;14.30;;;9.40;95.00;;;;;;4950368;28;20070;-78
2021/11/11 11:42:38;;;;;;;18.88;12.85;;;9.40;94.90;;;;;;4974207;28;20051;-76
2021/11/11 11:45:22;;;;;;;23.75;13.68;;;9.50;95.00;;;;;;4979931;28;20030;-77
2021/11/11 11:47:53;;;;;;;22.15;12.25;;;9.60;94.90;;;;;;4982149;28;20520;-78
2021/11/11 11:50:29;;;;;;;23.48;12.10;;;9.60;94.50;;;;;;4979037;28;20068;-77
2021/11/11 11:53:02;;;;;;;21.30;12.98;;;9.60;94.40;;;;;;4987230;28;20039;-78
2021/11/11 11:55:38;;;;;;;21.40;12.05;;;9.60;94.20;;;;;;4970671;28;20030;-77
2021/11/11 11:58:10;;;;;;;22.40;12.75;;;9.60;93.80;;;;;;4986336;28;20033;-78
2021/11/11 12:01:36;;;;;;;24.52;12.68;;;9.60;93.60;;;;;;4988527;28;20129;-77
2021/11/11 12:03:42;;;;;;;21.35;11.25;;;9.70;93.70;;;;;;4976346;28;20322;-78
2021/11/11 12:09:18;;;;;;;21.60;12.02;;;9.70;93.90;;;;;;4982442;28;20035;-78
2021/11/11 12:14:37;;;;;;;22.35;11.43;;;9.80;94.00;;;;;;4989516;28;20069;-78
2021/11/11 12:28:39;;;;;;;23.50;11.68;;;9.70;93.90;;;;;;4983780;28;20455;-78
2021/11/11 12:34:20;;;;;;;24.42;11.88;;;9.70;94.20;;;;;;4970752;28;20030;-78
2021/11/11 12:39:46;;;;;;;23.88;12.75;;;9.70;94.20;;;;;;4986872;28;20124;-79
2021/11/11 12:42:18;;;;;;;26.50;11.38;;;9.70;94.20;;;;;;4983644;28;20030;-78
2021/11/11 12:45:12;;;;;;;22.55;11.68;;;9.70;94.40;;;;;;4985979;28;20042;-78
2021/11/11 12:47:47;;;;;;;16.73;10.95;;;9.70;94.50;;;;;;4988342;28;20104;-77
2021/11/11 12:50:28;;;;;;;22.30;12.30;;;9.70;94.40;;;;;;4993648;28;20034;-78
2021/11/11 12:53:09;;;;;;;21.88;11.32;;;9.70;94.40;;;;;;4985650;28;20081;-78
2021/11/11 12:55:35;;;;;;;18.65;11.23;;;9.70;94.60;;;;;;4985552;28;20098;-78
2021/11/11 12:58:04;;;;;;;20.13;12.23;;;9.80;94.60;;;;;;4986567;28;20027;-79
2021/11/11 13:00:34;;;;;;;19.63;11.60;;;9.70;94.50;;;;;;4974178;28;20018;-77
2021/11/11 13:03:01;;;;;;;22.13;11.80;;;9.70;94.60;;;;;;4984030;28;20026;-79
2021/11/11 13:05:46;;;;;;;17.98;11.35;;;9.70;94.60;;;;;;4986954;28;20042;-77
2021/11/11 13:08:12;;;;;;;22.13;10.68;;;9.70;94.60;;;;;;4967620;28;20023;-78
2021/11/11 13:11:05;;;;;;;22.58;11.50;;;9.70;94.60;;;;;;4984072;28;20057;-78
2021/11/11 13:13:35;;;;;;;18.20;11.70;;;9.70;94.60;;;;;;4983524;28;20376;-79
2021/11/11 13:16:13;;;;;;;22.05;11.77;;;9.70;94.80;;;;;;4968635;28;20026;-79
2021/11/11 13:18:41;;;;;;;24.42;11.95;;;9.70;94.70;;;;;;4974172;28;20106;-78
2021/11/11 13:21:36;;;;;;;20.58;12.43;;;9.70;94.70;;;;;;4984683;28;20110;-79
2021/11/11 13:24:36;;;;;;;22.63;11.50;;;9.70;94.70;;;;;;4990263;28;20018;-79
2021/11/11 13:58:44;;;;;;;26.55;14.45;;;9.30;97.10;;;;;;4974827;28;20154;-78